Time;durP1;ratioP1;P1;durP2;ratioP2;P2;SDS_P1;SDS_P2;PMS_P1;PMS_P2;Temp;Humidity;BMP_temperature;BMP_pressure;BME280_temperature;BME280_humidity;BME280_pressure;Samples;Min_cycle;Max_cycle;Signal;HPM_P1;HPM_P2
2023/05/13 00:00:23;;;;;;;;;;;13.10;99.90;;;;;;5051597;28;19917;-63
2023/05/13 00:02:48;;;;;;;;;;;13.10;99.90;;;;;;5051488;28;19917;-62
2023/05/13 00:05:14;;;;;;;;;;;13.10;99.90;;;;;;5051022;28;19918;-62
2023/05/13 00:07:40;;;;;;;;;;;13.10;99.90;;;;;;5050475;28;19916;-63
2023/05/13 00:10:06;;;;;;;;;;;13.00;99.90;;;;;;5050193;28;19924;-63
2023/05/13 00:12:31;;;;;;;;;;;12.90;99.90;;;;;;5050546;28;20385;-63
2023/05/13 00:14:57;;;;;;;;;;;12.80;99.90;;;;;;5051408;28;19917;-62
2023/05/13 00:17:22;;;;;;;;;;;12.80;99.90;;;;;;5049642;28;20282;-64
2023/05/13 00:19:48;;;;;;;;;;;12.80;99.90;;;;;;5051143;28;19916;-63
2023/05/13 00:22:13;;;;;;;;;;;12.80;99.90;;;;;;5047444;28;19940;-63
2023/05/13 00:24:39;;;;;;;;;;;12.80;99.90;;;;;;5049820;28;19939;-62
2023/05/13 00:27:04;;;;;;;;;;;12.70;99.90;;;;;;5048893;28;19917;-63
2023/05/13 00:29:30;;;;;;;;;;;12.60;99.90;;;;;;5049973;28;20325;-64
2023/05/13 00:31:55;;;;;;;;;;;12.50;99.90;;;;;;5050985;28;19921;-63
2023/05/13 00:34:21;;;;;;;;;;;12.40;99.90;;;;;;5047771;28;19921;-63
2023/05/13 00:36:46;;;;;;;;;;;12.30;99.90;;;;;;5049336;28;19921;-63
2023/05/13 00:39:12;;;;;;;;;;;12.20;99.90;;;;;;5048317;28;20409;-64
2023/05/13 00:41:38;;;;;;;;;;;12.20;99.90;;;;;;5049301;28;20376;-63
2023/05/13 00:44:03;;;;;;;;;;;12.20;99.90;;;;;;5050194;28;20289;-63
2023/05/13 00:46:30;;;;;;;;;;;12.20;99.90;;;;;;5048452;28;19956;-64
2023/05/13 00:48:55;;;;;;;;;;;12.20;99.90;;;;;;5049886;28;19920;-62
2023/05/13 00:51:21;;;;;;;;;;;12.20;99.90;;;;;;5050142;28;20377;-63
2023/05/13 00:53:46;;;;;;;;;;;12.20;99.90;;;;;;5048390;28;19920;-64
2023/05/13 00:56:12;;;;;;;;;;;12.20;99.90;;;;;;5049585;28;19924;-63
2023/05/13 00:58:38;;;;;;;;;;;12.20;99.90;;;;;;5048730;28;19917;-62
2023/05/13 01:01:06;;;;;;;;;;;12.20;99.90;;;;;;5048973;28;20388;-64
2023/05/13 01:03:37;;;;;;;;;;;12.20;99.90;;;;;;5050034;28;19971;-63
2023/05/13 01:06:07;;;;;;;;;;;12.20;99.90;;;;;;5049168;28;19917;-64
2023/05/13 01:08:33;;;;;;;;;;;12.20;99.90;;;;;;5049523;28;19920;-63
2023/05/13 01:11:00;;;;;;;;;;;12.10;99.90;;;;;;5050246;28;20167;-63
2023/05/13 01:13:29;;;;;;;;;;;12.00;99.90;;;;;;5048786;28;19927;-63
2023/05/13 01:15:58;;;;;;;;;;;12.00;99.90;;;;;;5052891;28;19924;-63
2023/05/13 01:18:27;;;;;;;;;;;12.00;99.90;;;;;;5052355;28;19916;-63
2023/05/13 01:20:52;;;;;;;;;;;11.90;99.90;;;;;;5050723;28;19964;-62
2023/05/13 01:23:18;;;;;;;;;;;11.90;99.90;;;;;;5049285;28;19920;-62
2023/05/13 01:25:44;;;;;;;;;;;11.90;99.90;;;;;;5049173;28;19917;-63
2023/05/13 01:28:09;;;;;;;;;;;11.90;99.90;;;;;;5048639;28;19967;-62
2023/05/13 01:30:35;;;;;;;;;;;11.90;99.90;;;;;;5049981;28;21334;-64
2023/05/13 01:33:01;;;;;;;;;;;11.90;99.90;;;;;;5048927;28;19928;-63
2023/05/13 01:35:28;;;;;;;;;;;11.90;99.90;;;;;;5049733;28;19916;-61
2023/05/13 01:37:54;;;;;;;;;;;11.80;99.90;;;;;;5046821;28;19927;-64
2023/05/13 01:40:20;;;;;;;;;;;11.80;99.90;;;;;;5049912;28;19921;-64
2023/05/13 01:42:45;;;;;;;;;;;11.80;99.90;;;;;;5050041;28;20358;-64
2023/05/13 01:45:11;;;;;;;;;;;11.80;99.90;;;;;;5049431;28;19920;-63
2023/05/13 01:47:37;;;;;;;;;;;11.80;99.90;;;;;;5049160;28;19924;-64
2023/05/13 01:50:02;;;;;;;;;;;11.80;99.90;;;;;;5049051;28;19923;-63
2023/05/13 01:52:28;;;;;;;;;;;11.80;99.90;;;;;;5049647;28;19927;-62
2023/05/13 01:54:53;;;;;;;;;;;11.80;99.90;;;;;;5049490;28;19925;-62
2023/05/13 01:57:19;;;;;;;;;;;11.80;99.90;;;;;;5049071;28;19970;-63
2023/05/13 01:59:44;;;;;;;;;;;11.80;99.90;;;;;;5049101;28;19948;-64
2023/05/13 02:02:10;;;;;;;;;;;11.80;99.90;;;;;;5048001;28;19948;-62
2023/05/13 02:04:35;;;;;;;;;;;11.80;99.90;;;;;;5048876;28;20000;-63
2023/05/13 02:07:01;;;;;;;;;;;11.70;99.90;;;;;;5047907;28;19931;-63
2023/05/13 02:09:26;;;;;;;;;;;11.70;99.90;;;;;;5048443;28;19978;-63
2023/05/13 02:11:52;;;;;;;;;;;11.70;99.90;;;;;;5048875;28;19920;-63
2023/05/13 02:14:17;;;;;;;;;;;11.70;99.90;;;;;;5048721;28;19923;-63
2023/05/13 02:16:43;;;;;;;;;;;11.70;99.90;;;;;;5046931;28;19943;-64
2023/05/13 02:19:08;;;;;;;;;;;11.60;99.90;;;;;;5048247;28;19921;-63
2023/05/13 02:21:34;;;;;;;;;;;11.60;99.90;;;;;;5048881;28;19916;-63
2023/05/13 02:24:00;;;;;;;;;;;11.60;99.90;;;;;;5048608;28;19925;-65
2023/05/13 02:26:25;;;;;;;;;;;11.60;99.90;;;;;;5045923;28;20011;-62
2023/05/13 02:28:51;;;;;;;;;;;11.60;99.90;;;;;;5030017;28;20295;-64
2023/05/13 02:31:16;;;;;;;;;;;11.60;99.90;;;;;;5048725;28;20023;-65
2023/05/13 02:33:42;;;;;;;;;;;11.50;99.90;;;;;;5047497;28;19923;-66
2023/05/13 02:36:07;;;;;;;;;;;11.50;99.90;;;;;;5046052;28;19917;-65
2023/05/13 02:38:33;;;;;;;;;;;11.50;99.90;;;;;;5047773;28;20663;-63
2023/05/13 02:41:02;;;;;;;;;;;11.50;99.90;;;;;;5047305;28;19920;-63
2023/05/13 02:43:28;;;;;;;;;;;11.50;99.90;;;;;;5048106;28;20364;-63
2023/05/13 02:45:54;;;;;;;;;;;11.50;99.90;;;;;;5048677;28;20255;-63
2023/05/13 02:48:19;;;;;;;;;;;11.40;99.90;;;;;;5047665;28;19924;-65
2023/05/13 02:50:45;;;;;;;;;;;11.40;99.90;;;;;;5045722;28;19917;-65
2023/05/13 02:53:10;;;;;;;;;;;11.30;99.90;;;;;;5048320;28;20293;-63
2023/05/13 02:55:36;;;;;;;;;;;11.30;99.90;;;;;;5048548;28;19916;-63
2023/05/13 02:58:02;;;;;;;;;;;11.30;99.90;;;;;;5047422;28;19917;-65
2023/05/13 03:00:27;;;;;;;;;;;11.30;99.90;;;;;;5048574;28;19928;-65
2023/05/13 03:02:53;;;;;;;;;;;11.30;99.90;;;;;;5051188;28;20539;-64
2023/05/13 03:05:18;;;;;;;;;;;11.20;99.90;;;;;;5051578;28;19916;-65
2023/05/13 03:07:44;;;;;;;;;;;11.20;99.90;;;;;;5051618;28;19920;-66
2023/05/13 03:10:09;;;;;;;;;;;11.10;99.90;;;;;;5052175;28;19927;-62
2023/05/13 03:12:35;;;;;;;;;;;11.20;99.90;;;;;;5050997;28;20286;-62
2023/05/13 03:15:02;;;;;;;;;;;11.20;99.90;;;;;;5049953;28;20016;-65
2023/05/13 03:17:29;;;;;;;;;;;11.20;99.90;;;;;;5050898;28;19994;-66
2023/05/13 03:19:55;;;;;;;;;;;11.20;99.90;;;;;;5050881;28;19916;-65
2023/05/13 03:22:20;;;;;;;;;;;11.10;99.90;;;;;;5051912;28;20280;-66
2023/05/13 03:24:46;;;;;;;;;;;11.20;99.90;;;;;;5051576;28;19930;-65
2023/05/13 03:27:11;;;;;;;;;;;11.10;99.90;;;;;;5050491;28;19923;-64
2023/05/13 03:29:37;;;;;;;;;;;11.10;99.90;;;;;;5051409;28;20004;-66
2023/05/13 03:32:03;;;;;;;;;;;11.10;99.90;;;;;;5051971;28;20019;-65
2023/05/13 03:34:28;;;;;;;;;;;11.10;99.90;;;;;;5051007;28;19917;-65
2023/05/13 03:36:54;;;;;;;;;;;11.10;99.90;;;;;;5051573;28;19921;-65
2023/05/13 03:39:20;;;;;;;;;;;11.00;99.90;;;;;;5050253;28;20450;-65
2023/05/13 03:41:45;;;;;;;;;;;11.00;99.90;;;;;;5050023;28;20007;-65
2023/05/13 03:44:11;;;;;;;;;;;11.00;99.90;;;;;;5051627;28;19966;-65
2023/05/13 03:46:36;;;;;;;;;;;11.00;99.90;;;;;;5051461;28;19923;-65
2023/05/13 03:49:02;;;;;;;;;;;11.00;99.90;;;;;;5049889;28;19917;-66
2023/05/13 03:51:27;;;;;;;;;;;11.00;99.90;;;;;;5053058;28;19920;-64
2023/05/13 03:53:53;;;;;;;;;;;11.00;99.90;;;;;;5057341;28;20015;-65
2023/05/13 03:56:18;;;;;;;;;;;11.00;99.90;;;;;;5054355;28;19921;-64
2023/05/13 03:58:44;;;;;;;;;;;10.90;99.90;;;;;;5051348;28;20373;-64
2023/05/13 04:01:09;;;;;;;;;;;10.90;99.90;;;;;;5051751;28;19917;-64
2023/05/13 04:03:35;;;;;;;;;;;10.90;99.90;;;;;;5050083;28;20373;-65
2023/05/13 04:06:00;;;;;;;;;;;10.80;99.90;;;;;;5050732;28;19928;-66
2023/05/13 04:08:26;;;;;;;;;;;10.80;99.90;;;;;;5050579;28;19970;-65
2023/05/13 04:10:52;;;;;;;;;;;10.80;99.90;;;;;;5051522;28;20296;-65
2023/05/13 04:13:17;;;;;;;;;;;10.80;99.90;;;;;;5049585;28;19925;-65
2023/05/13 04:15:43;;;;;;;;;;;10.90;99.90;;;;;;5050859;28;19917;-62
2023/05/13 04:18:08;;;;;;;;;;;10.90;99.90;;;;;;5050165;28;19924;-65
2023/05/13 04:20:36;;;;;;;;;;;11.00;99.90;;;;;;5051326;28;19925;-62
2023/05/13 04:23:02;;;;;;;;;;;11.00;99.90;;;;;;5048475;28;19967;-63
2023/05/13 04:25:28;;;;;;;;;;;11.00;99.90;;;;;;5051060;28;20316;-63
2023/05/13 04:27:53;;;;;;;;;;;11.00;99.90;;;;;;5049745;28;19917;-63
2023/05/13 04:30:19;;;;;;;;;;;11.00;99.90;;;;;;5050870;28;19917;-64
2023/05/13 04:32:45;;;;;;;;;;;11.00;99.90;;;;;;5049898;28;19960;-63
2023/05/13 04:35:10;;;;;;;;;;;11.10;99.90;;;;;;5050215;28;20348;-63
2023/05/13 04:37:35;;;;;;;;;;;11.20;99.90;;;;;;5049104;28;19917;-63
2023/05/13 04:40:01;;;;;;;;;;;11.20;99.90;;;;;;5050525;28;19943;-64
2023/05/13 04:42:26;;;;;;;;;;;11.20;99.90;;;;;;5050062;28;19962;-63
2023/05/13 04:44:52;;;;;;;;;;;11.30;99.90;;;;;;5050445;28;19921;-65
2023/05/13 04:47:17;;;;;;;;;;;11.30;99.90;;;;;;5049878;28;19959;-64
2023/05/13 04:49:43;;;;;;;;;;;11.30;99.90;;;;;;5049777;28;19921;-63
2023/05/13 04:52:11;;;;;;;;;;;11.30;99.90;;;;;;5049200;28;19924;-63
2023/05/13 04:54:38;;;;;;;;;;;11.40;99.90;;;;;;5050240;28;20370;-64
2023/05/13 04:57:04;;;;;;;;;;;11.40;99.90;;;;;;5050247;28;19924;-64
2023/05/13 04:59:29;;;;;;;;;;;11.40;99.90;;;;;;5046053;28;19916;-63
2023/05/13 05:01:55;;;;;;;;;;;11.50;99.90;;;;;;5049909;28;19971;-63
2023/05/13 05:04:21;;;;;;;;;;;11.60;99.90;;;;;;5049554;28;19921;-63
2023/05/13 05:06:47;;;;;;;;;;;11.60;99.90;;;;;;5048326;28;19917;-63
2023/05/13 05:09:13;;;;;;;;;;;11.70;99.90;;;;;;5049859;28;20029;-63
2023/05/13 05:11:38;;;;;;;;;;;11.80;99.90;;;;;;5050091;28;19924;-63
2023/05/13 05:14:04;;;;;;;;;;;11.80;99.90;;;;;;5049619;28;20000;-62
2023/05/13 05:16:29;;;;;;;;;;;11.90;99.90;;;;;;5049559;28;20242;-62
2023/05/13 05:18:55;;;;;;;;;;;12.00;99.90;;;;;;5049493;28;20403;-63
2023/05/13 05:21:20;;;;;;;;;;;12.00;99.90;;;;;;5049983;28;19928;-64
2023/05/13 05:23:46;;;;;;;;;;;12.10;99.90;;;;;;5049955;28;20112;-63
2023/05/13 05:26:11;;;;;;;;;;;12.20;99.90;;;;;;5049463;28;19925;-62
2023/05/13 05:28:38;;;;;;;;;;;12.30;99.90;;;;;;5049373;28;19920;-64
2023/05/13 05:31:04;;;;;;;;;;;12.40;99.90;;;;;;5050289;28;19923;-63
2023/05/13 05:33:30;;;;;;;;;;;12.40;99.90;;;;;;5049723;28;19921;-63
2023/05/13 05:35:55;;;;;;;;;;;12.50;99.90;;;;;;5049676;28;20290;-64
2023/05/13 05:38:24;;;;;;;;;;;12.60;99.90;;;;;;5047763;28;19920;-64
2023/05/13 05:40:49;;;;;;;;;;;12.70;99.90;;;;;;5049538;28;19986;-63
2023/05/13 05:43:15;;;;;;;;;;;12.80;99.90;;;;;;5049208;28;19917;-61
2023/05/13 05:45:40;;;;;;;;;;;12.90;99.90;;;;;;5049011;28;19929;-62
2023/05/13 05:48:06;;;;;;;;;;;13.00;99.90;;;;;;5049008;28;20522;-64
2023/05/13 05:50:32;;;;;;;;;;;13.10;99.90;;;;;;5049287;28;20446;-64
2023/05/13 05:52:58;;;;;;;;;;;13.20;99.90;;;;;;5048318;28;20011;-63
2023/05/13 05:55:24;;;;;;;;;;;13.40;99.90;;;;;;5046480;28;20364;-63
2023/05/13 05:57:50;;;;;;;;;;;13.50;99.90;;;;;;5046742;28;19921;-62
2023/05/13 06:00:16;;;;;;;;;;;13.60;99.90;;;;;;5048838;28;20270;-64
2023/05/13 06:02:41;;;;;;;;;;;13.70;99.90;;;;;;5049029;28;19920;-62
2023/05/13 06:05:07;;;;;;;;;;;13.80;99.90;;;;;;5048330;28;19920;-63
2023/05/13 06:07:32;;;;;;;;;;;13.90;99.90;;;;;;5047418;28;20434;-63
2023/05/13 06:09:58;;;;;;;;;;;14.00;99.90;;;;;;5048428;28;19920;-63
2023/05/13 06:12:23;;;;;;;;;;;14.10;99.90;;;;;;5047930;28;19960;-63
2023/05/13 06:14:49;;;;;;;;;;;14.20;99.90;;;;;;5048020;28;19924;-63
2023/05/13 06:17:15;;;;;;;;;;;14.20;99.90;;;;;;5048162;28;19917;-62
2023/05/13 06:19:43;;;;;;;;;;;14.40;99.90;;;;;;5048392;28;20034;-64
2023/05/13 06:22:11;;;;;;;;;;;14.40;99.90;;;;;;5049017;28;19923;-62
2023/05/13 06:24:37;;;;;;;;;;;14.50;99.90;;;;;;5048288;28;19925;-62
2023/05/13 06:27:03;;;;;;;;;;;14.50;99.90;;;;;;5049209;28;20330;-62
2023/05/13 06:29:28;;;;;;;;;;;14.70;99.90;;;;;;5047063;28;19920;-63
2023/05/13 06:31:54;;;;;;;;;;;14.80;99.90;;;;;;5049326;28;19933;-62
2023/05/13 06:34:19;;;;;;;;;;;14.90;99.90;;;;;;5054289;28;19916;-62
2023/05/13 06:36:45;;;;;;;;;;;14.90;99.90;;;;;;5046999;28;19920;-62
2023/05/13 06:39:11;;;;;;;;;;;15.10;99.90;;;;;;5047611;28;19927;-62
2023/05/13 06:41:37;;;;;;;;;;;15.10;99.90;;;;;;5048721;28;19987;-62
2023/05/13 06:44:02;;;;;;;;;;;15.20;99.90;;;;;;5047737;28;20423;-62
2023/05/13 06:46:28;;;;;;;;;;;15.30;99.90;;;;;;5048448;28;20383;-61
2023/05/13 06:48:55;;;;;;;;;;;15.30;99.90;;;;;;5046502;28;19966;-61
2023/05/13 06:51:21;;;;;;;;;;;15.40;99.90;;;;;;5046956;28;19924;-63
2023/05/13 06:53:46;;;;;;;;;;;15.60;99.90;;;;;;5048403;28;20400;-62
2023/05/13 06:56:12;;;;;;;;;;;15.60;99.90;;;;;;5048313;28;19979;-62
2023/05/13 06:58:37;;;;;;;;;;;15.70;99.90;;;;;;5047603;28;20000;-65
2023/05/13 07:01:03;;;;;;;;;;;15.90;99.90;;;;;;5048398;28;19916;-64
2023/05/13 07:03:28;;;;;;;;;;;16.00;99.90;;;;;;5048489;28;19985;-63
2023/05/13 07:05:54;;;;;;;;;;;16.10;99.90;;;;;;5048552;28;20011;-65
2023/05/13 07:08:20;;;;;;;;;;;16.10;99.90;;;;;;5048075;28;19916;-64
2023/05/13 07:10:45;;;;;;;;;;;16.20;99.90;;;;;;5048356;28;19917;-62
2023/05/13 07:13:11;;;;;;;;;;;16.40;99.90;;;;;;5047688;28;19924;-63
2023/05/13 07:15:36;;;;;;;;;;;16.40;99.90;;;;;;5049007;28;19982;-64
2023/05/13 07:18:02;;;;;;;;;;;16.50;99.90;;;;;;5045495;28;20005;-65
2023/05/13 07:20:27;;;;;;;;;;;16.70;99.90;;;;;;5049062;28;19917;-62
2023/05/13 07:22:53;;;;;;;;;;;16.80;99.90;;;;;;5046692;28;19917;-62
2023/05/13 07:25:18;;;;;;;;;;;16.90;99.90;;;;;;5046631;28;19917;-64
2023/05/13 07:27:44;;;;;;;;;;;17.00;99.90;;;;;;5047177;28;19917;-63
2023/05/13 07:30:11;;;;;;;;;;;17.00;99.90;;;;;;5048622;28;20035;-65
2023/05/13 07:32:37;;;;;;;;;;;17.20;99.90;;;;;;5044945;28;20421;-67
2023/05/13 07:35:03;;;;;;;;;;;17.30;99.90;;;;;;5047724;28;20468;-64
2023/05/13 07:37:28;;;;;;;;;;;17.40;99.90;;;;;;5046174;28;19987;-67
2023/05/13 07:39:54;;;;;;;;;;;17.50;99.90;;;;;;5046954;28;19974;-62
2023/05/13 07:42:19;;;;;;;;;;;17.70;99.90;;;;;;5047453;28;19924;-65
2023/05/13 07:44:45;;;;;;;;;;;17.80;99.90;;;;;;5046523;28;20311;-64
2023/05/13 07:47:11;;;;;;;;;;;17.90;99.90;;;;;;5047586;28;19920;-65
2023/05/13 07:49:37;;;;;;;;;;;18.00;99.90;;;;;;5050700;28;19923;-63
2023/05/13 07:52:03;;;;;;;;;;;18.20;99.90;;;;;;5051163;28;20424;-63
2023/05/13 07:54:28;;;;;;;;;;;18.20;99.90;;;;;;5051464;28;19917;-63
2023/05/13 07:56:53;;;;;;;;;;;18.30;99.90;;;;;;5050251;28;19921;-66
2023/05/13 07:59:19;;;;;;;;;;;18.40;99.90;;;;;;5050907;28;19928;-65
2023/05/13 08:01:45;;;;;;;;;;;18.50;99.90;;;;;;5049515;28;20340;-63
2023/05/13 08:04:10;;;;;;;;;;;18.60;99.90;;;;;;5051216;28;19917;-64
2023/05/13 08:06:35;;;;;;;;;;;18.70;99.90;;;;;;5050577;28;19940;-63
2023/05/13 08:09:01;;;;;;;;;;;18.90;99.90;;;;;;5051013;28;19931;-64
2023/05/13 08:11:27;;;;;;;;;;;19.00;99.90;;;;;;5050593;28;19920;-64
2023/05/13 08:13:53;;;;;;;;;;;19.10;99.90;;;;;;5049992;28;19924;-64
2023/05/13 08:16:18;;;;;;;;;;;19.20;99.90;;;;;;5051962;28;20291;-63
2023/05/13 08:18:44;;;;;;;;;;;19.30;99.90;;;;;;5049728;28;19940;-63
2023/05/13 08:21:09;;;;;;;;;;;19.40;99.90;;;;;;5050244;28;19931;-62
2023/05/13 08:23:35;;;;;;;;;;;19.50;99.90;;;;;;5041429;28;20492;-64
2023/05/13 08:26:01;;;;;;;;;;;19.60;99.90;;;;;;5034771;28;20324;-64
2023/05/13 08:28:28;;;;;;;;;;;19.70;99.90;;;;;;5047275;28;20352;-64
2023/05/13 08:30:53;;;;;;;;;;;19.80;99.90;;;;;;5048730;28;20046;-64
2023/05/13 08:33:19;;;;;;;;;;;19.90;99.90;;;;;;5049227;28;20027;-63
2023/05/13 08:35:45;;;;;;;;;;;20.00;99.90;;;;;;5047921;28;20385;-63
2023/05/13 08:38:10;;;;;;;;;;;20.10;99.90;;;;;;5049308;28;19917;-64
2023/05/13 08:40:36;;;;;;;;;;;20.20;99.90;;;;;;5051430;28;19916;-65
2023/05/13 08:43:02;;;;;;;;;;;20.30;99.90;;;;;;5033105;28;19928;-62
2023/05/13 08:45:29;;;;;;;;;;;20.40;99.90;;;;;;5032754;28;19944;-63
2023/05/13 08:47:56;;;;;;;;;;;20.50;99.90;;;;;;5031839;28;19924;-63
2023/05/13 08:50:22;;;;;;;;;;;20.60;99.90;;;;;;5043496;28;20247;-63
2023/05/13 08:52:49;;;;;;;;;;;20.70;99.80;;;;;;5050306;28;19972;-63
2023/05/13 08:55:15;;;;;;;;;;;20.80;99.40;;;;;;5029609;28;19989;-64
2023/05/13 08:57:40;;;;;;;;;;;20.80;99.30;;;;;;5049407;28;19924;-63
2023/05/13 09:00:06;;;;;;;;;;;20.90;99.00;;;;;;5048983;28;20510;-64
2023/05/13 09:02:31;;;;;;;;;;;21.00;99.40;;;;;;5051171;28;19924;-64
2023/05/13 09:05:00;;;;;;;;;;;21.10;99.60;;;;;;5051051;28;20339;-67
2023/05/13 09:07:28;;;;;;;;;;;21.10;99.60;;;;;;5050150;28;19998;-66
2023/05/13 09:09:54;;;;;;;;;;;21.20;98.20;;;;;;5053830;28;19925;-63
2023/05/13 09:12:38;;;;;;;;;;;21.30;98.50;;;;;;5054874;28;19927;-63
2023/05/13 09:15:07;;;;;;;;;;;21.40;98.00;;;;;;5050158;28;19958;-65
2023/05/13 09:17:37;;;;;;;;;;;21.40;98.60;;;;;;5048774;28;20300;-62
2023/05/13 09:20:06;;;;;;;;;;;21.50;98.60;;;;;;5049799;28;20289;-62
2023/05/13 09:22:33;;;;;;;;;;;21.60;97.50;;;;;;5049626;28;19930;-62
2023/05/13 09:24:59;;;;;;;;;;;21.60;97.80;;;;;;5049717;28;19917;-62
2023/05/13 09:27:37;;;;;;;;;;;21.70;98.50;;;;;;5049283;28;19923;-64
2023/05/13 09:30:03;;;;;;;;;;;21.70;98.00;;;;;;5046150;28;19923;-63
2023/05/13 09:32:29;;;;;;;;;;;21.80;97.90;;;;;;5047960;28;19925;-62
2023/05/13 09:34:55;;;;;;;;;;;21.80;98.10;;;;;;5049034;28;19986;-64
2023/05/13 09:37:22;;;;;;;;;;;21.90;97.30;;;;;;5046861;28;21791;-65
2023/05/13 09:39:50;;;;;;;;;;;21.90;97.50;;;;;;5046662;28;19916;-62
2023/05/13 09:42:16;;;;;;;;;;;22.00;96.80;;;;;;5049406;28;19999;-62
2023/05/13 09:44:43;;;;;;;;;;;22.00;96.40;;;;;;5049187;28;19924;-64
2023/05/13 09:47:12;;;;;;;;;;;22.10;96.00;;;;;;5047487;28;19924;-65
2023/05/13 09:49:39;;;;;;;;;;;22.10;96.10;;;;;;5047301;28;20331;-64
2023/05/13 09:52:08;;;;;;;;;;;22.20;95.50;;;;;;5048731;28;19983;-65
2023/05/13 09:54:35;;;;;;;;;;;22.20;95.30;;;;;;5048991;28;20007;-64
2023/05/13 09:57:01;;;;;;;;;;;22.30;95.50;;;;;;5048620;28;19924;-63
2023/05/13 09:59:26;;;;;;;;;;;22.40;95.20;;;;;;5048282;28;20156;-63
2023/05/13 10:01:53;;;;;;;;;;;22.60;95.30;;;;;;5048817;28;19916;-63
2023/05/13 10:04:19;;;;;;;;;;;22.70;94.40;;;;;;5047608;28;19936;-63
2023/05/13 10:06:46;;;;;;;;;;;22.80;94.80;;;;;;5048787;28;20386;-64
2023/05/13 10:09:12;;;;;;;;;;;22.90;94.30;;;;;;5046886;28;19981;-64
2023/05/13 10:11:38;;;;;;;;;;;23.00;92.70;;;;;;5048256;28;20286;-65
2023/05/13 10:14:04;;;;;;;;;;;23.10;92.70;;;;;;5048677;28;19931;-64
2023/05/13 10:16:33;;;;;;;;;;;23.10;91.90;;;;;;5044666;28;20417;-64
2023/05/13 10:18:59;;;;;;;;;;;23.10;90.70;;;;;;5047174;28;20071;-64
2023/05/13 10:21:28;;;;;;;;;;;23.10;90.60;;;;;;5047743;28;20122;-64
2023/05/13 10:23:54;;;;;;;;;;;23.10;90.60;;;;;;5047861;28;19955;-63
2023/05/13 10:26:21;;;;;;;;;;;23.20;90.60;;;;;;5048896;28;20292;-63
2023/05/13 10:28:47;;;;;;;;;;;23.30;90.40;;;;;;5048291;28;19923;-64
2023/05/13 10:31:12;;;;;;;;;;;23.40;88.50;;;;;;5048081;28;20054;-64
2023/05/13 10:33:38;;;;;;;;;;;23.50;90.00;;;;;;5046693;28;20003;-64
2023/05/13 10:36:24;;;;;;;;;;;23.50;89.20;;;;;;5048381;28;19917;-63
2023/05/13 10:39:09;;;;;;;;;;;23.60;88.40;;;;;;5047584;28;19917;-66
2023/05/13 10:41:34;;;;;;;;;;;23.60;87.50;;;;;;5047927;28;19917;-65
2023/05/13 10:44:00;;;;;;;;;;;23.70;88.10;;;;;;5047427;28;19974;-65
2023/05/13 10:46:26;;;;;;;;;;;23.80;89.10;;;;;;5048660;28;19965;-65
2023/05/13 10:48:57;;;;;;;;;;;23.70;84.40;;;;;;5047640;28;19928;-64
2023/05/13 10:51:23;;;;;;;;;;;23.70;86.40;;;;;;5049014;28;19917;-68
2023/05/13 10:53:49;;;;;;;;;;;23.70;84.00;;;;;;5048472;28;19925;-67
2023/05/13 10:56:18;;;;;;;;;;;23.70;83.00;;;;;;5047978;28;20292;-67
2023/05/13 10:58:55;;;;;;;;;;;23.80;84.60;;;;;;5048151;28;19952;-65
2023/05/13 11:01:27;;;;;;;;;;;23.80;84.60;;;;;;5047096;28;19921;-66
2023/05/13 11:03:54;;;;;;;;;;;23.90;85.00;;;;;;5048025;28;19920;-64
2023/05/13 11:06:21;;;;;;;;;;;24.00;84.30;;;;;;5047836;28;19964;-65
2023/05/13 11:08:50;;;;;;;;;;;24.10;82.80;;;;;;5046199;28;19924;-64
2023/05/13 11:11:16;;;;;;;;;;;24.20;83.10;;;;;;5030478;28;19923;-64
2023/05/13 11:13:41;;;;;;;;;;;24.30;82.20;;;;;;5047076;28;19929;-65
2023/05/13 11:16:09;;;;;;;;;;;24.30;78.20;;;;;;5048054;28;19943;-65
2023/05/13 11:18:35;;;;;;;;;;;24.40;80.30;;;;;;5047454;28;20007;-66
2023/05/13 11:21:02;;;;;;;;;;;24.40;78.50;;;;;;5048967;28;20020;-65
2023/05/13 11:23:28;;;;;;;;;;;24.40;79.10;;;;;;5048320;28;19924;-65
2023/05/13 11:26:10;;;;;;;;;;;24.50;77.70;;;;;;5051607;28;19923;-65
2023/05/13 11:28:54;;;;;;;;;;;24.50;77.30;;;;;;5047417;28;19916;-63
2023/05/13 11:31:21;;;;;;;;;;;24.60;77.70;;;;;;5052198;28;19917;-65
2023/05/13 11:34:16;;;;;;;;;;;24.70;76.70;;;;;;5051006;28;19924;-66
2023/05/13 11:36:45;;;;;;;;;;;24.70;75.60;;;;;;4994018;28;19928;-65
2023/05/13 11:39:15;;;;;;;;;;;24.70;74.40;;;;;;4998740;28;20502;-64
2023/05/13 11:41:51;;;;;;;;;;;24.70;74.50;;;;;;5010945;28;19919;-66
2023/05/13 11:44:20;;;;;;;;;;;24.70;73.30;;;;;;5002995;28;20495;-64
2023/05/13 11:46:48;;;;;;;;;;;24.80;72.80;;;;;;4993397;28;19960;-64
2023/05/13 11:49:28;;;;;;;;;;;24.80;71.60;;;;;;4991735;28;20291;-66
2023/05/13 11:51:54;;;;;;;;;;;24.70;72.40;;;;;;4974638;28;19933;-65
2023/05/13 11:54:19;;;;;;;;;;;24.60;72.00;;;;;;4996814;28;19917;-66
2023/05/13 11:56:45;;;;;;;;;;;24.50;72.40;;;;;;5005933;28;19967;-64
2023/05/13 11:59:13;;;;;;;;;;;24.60;72.90;;;;;;5000595;28;20003;-66
2023/05/13 12:01:39;;;;;;;;;;;24.40;69.80;;;;;;4990832;28;19925;-64
2023/05/13 12:04:05;;;;;;;;;;;24.40;69.20;;;;;;4993848;28;19918;-65
2023/05/13 12:06:30;;;;;;;;;;;24.30;67.60;;;;;;5009921;28;20364;-64
2023/05/13 12:09:03;;;;;;;;;;;24.20;67.90;;;;;;4999583;28;19924;-65
2023/05/13 12:11:29;;;;;;;;;;;24.30;68.70;;;;;;4990557;28;19983;-64
2023/05/13 12:13:55;;;;;;;;;;;24.40;70.50;;;;;;5041314;28;20340;-65
2023/05/13 12:16:20;;;;;;;;;;;24.40;69.70;;;;;;5051824;28;19917;-65
2023/05/13 12:18:58;;;;;;;;;;;24.40;67.70;;;;;;5050126;28;20297;-66
2023/05/13 12:21:24;;;;;;;;;;;24.40;68.30;;;;;;5032683;28;19923;-65
2023/05/13 12:23:49;;;;;;;;;;;24.60;69.90;;;;;;5050711;28;19916;-65
2023/05/13 12:26:15;;;;;;;;;;;24.70;69.20;;;;;;5052089;28;19970;-66
2023/05/13 12:28:40;;;;;;;;;;;24.80;69.60;;;;;;5051190;28;20401;-65
2023/05/13 12:31:06;;;;;;;;;;;24.90;69.90;;;;;;5051772;28;19990;-65
2023/05/13 12:33:32;;;;;;;;;;;25.00;66.90;;;;;;5051650;28;19921;-65
2023/05/13 12:36:14;;;;;;;;;;;24.90;66.60;;;;;;5050492;28;19927;-65
2023/05/13 12:38:52;;;;;;;;;;;25.00;66.40;;;;;;5051685;28;19917;-66
2023/05/13 12:41:18;;;;;;;;;;;24.80;66.50;;;;;;5051828;28;19920;-65
2023/05/13 12:43:43;;;;;;;;;;;24.70;67.50;;;;;;5051692;28;19923;-67
2023/05/13 12:46:09;;;;;;;;;;;24.70;67.50;;;;;;5051889;28;19920;-64
2023/05/13 12:48:36;;;;;;;;;;;24.70;67.00;;;;;;5051101;28;19970;-64
2023/05/13 12:51:01;;;;;;;;;;;24.80;67.70;;;;;;5036995;28;19925;-67
2023/05/13 12:53:27;;;;;;;;;;;24.90;67.80;;;;;;5037371;28;19939;-64
2023/05/13 12:55:52;;;;;;;;;;;25.10;67.70;;;;;;5038161;28;19923;-64
2023/05/13 12:58:18;;;;;;;;;;;25.20;65.40;;;;;;5034777;28;20004;-65
2023/05/13 13:00:44;;;;;;;;;;;25.30;65.50;;;;;;5050268;28;19917;-65
2023/05/13 13:03:09;;;;;;;;;;;25.30;66.00;;;;;;5050694;28;19916;-65
2023/05/13 13:05:35;;;;;;;;;;;25.40;66.00;;;;;;5050704;28;19974;-66
2023/05/13 13:08:01;;;;;;;;;;;25.40;64.50;;;;;;5050741;28;20308;-66
2023/05/13 13:10:27;;;;;;;;;;;25.20;66.60;;;;;;5050945;28;20153;-65
2023/05/13 13:12:52;;;;;;;;;;;25.10;64.70;;;;;;5051296;28;19921;-64
2023/05/13 13:15:18;;;;;;;;;;;25.10;66.40;;;;;;5050056;28;19924;-63
2023/05/13 13:17:43;;;;;;;;;;;25.20;65.10;;;;;;5050557;28;19962;-64
2023/05/13 13:20:09;;;;;;;;;;;25.20;66.50;;;;;;5050137;28;19932;-64
2023/05/13 13:22:35;;;;;;;;;;;25.20;66.50;;;;;;5051073;28;20023;-63
2023/05/13 13:25:02;;;;;;;;;;;25.20;64.50;;;;;;5049648;28;19962;-63
2023/05/13 13:27:27;;;;;;;;;;;25.20;64.40;;;;;;5048724;28;19917;-65
2023/05/13 13:29:53;;;;;;;;;;;25.30;63.00;;;;;;5049964;28;19978;-63
2023/05/13 13:32:18;;;;;;;;;;;25.20;63.60;;;;;;5051070;28;19932;-64
2023/05/13 13:34:44;;;;;;;;;;;25.10;64.00;;;;;;5050290;28;19931;-62
2023/05/13 13:37:09;;;;;;;;;;;25.10;64.80;;;;;;5050474;28;19917;-64
2023/05/13 13:39:35;;;;;;;;;;;25.20;64.30;;;;;;5049936;28;19916;-61
2023/05/13 13:42:03;;;;;;;;;;;25.20;62.30;;;;;;5050188;28;19925;-61
2023/05/13 13:44:29;;;;;;;;;;;25.30;63.00;;;;;;5049983;28;20400;-61
2023/05/13 13:46:55;;;;;;;;;;;25.40;64.40;;;;;;5049825;28;19923;-62
2023/05/13 13:49:22;;;;;;;;;;;25.40;63.40;;;;;;5049218;28;19920;-63
2023/05/13 13:51:47;;;;;;;;;;;25.40;63.00;;;;;;5050170;28;20436;-63
2023/05/13 13:54:13;;;;;;;;;;;25.20;63.60;;;;;;5049594;28;20011;-63
2023/05/13 13:56:38;;;;;;;;;;;25.10;64.40;;;;;;5049857;28;20003;-63
2023/05/13 13:59:04;;;;;;;;;;;24.90;62.30;;;;;;5049739;28;19939;-63
2023/05/13 14:01:30;;;;;;;;;;;24.80;62.90;;;;;;5048637;28;19931;-62
2023/05/13 14:04:12;;;;;;;;;;;24.60;62.90;;;;;;5049743;28;19925;-63
2023/05/13 14:06:37;;;;;;;;;;;24.40;62.40;;;;;;5049544;28;20352;-63
2023/05/13 14:09:04;;;;;;;;;;;24.40;64.00;;;;;;5049562;28;19999;-63
2023/05/13 14:11:29;;;;;;;;;;;24.40;63.40;;;;;;5038568;28;19917;-63